Time;durP1;ratioP1;P1;durP2;ratioP2;P2;SDS_P1;SDS_P2;PMS_P1;PMS_P2;Temp;Humidity;BMP_temperature;BMP_pressure;BME280_temperature;BME280_humidity;BME280_pressure;Samples;Min_cycle;Max_cycle;Signal;HPM_P1;HPM_P2
2022/09/09 00:01:04;;;;;;;1.00;0.70;;;11.30;99.90;;;;;;5099672;28;20492;-84
2022/09/09 00:03:41;;;;;;;1.07;0.97;;;11.30;99.90;;;;;;5098086;28;20471;-86
2022/09/09 00:06:16;;;;;;;0.90;0.40;;;11.30;99.90;;;;;;5098624;28;20490;-83
2022/09/09 00:08:54;;;;;;;1.37;0.60;;;11.20;99.90;;;;;;5098425;28;20595;-85
2022/09/09 00:11:29;;;;;;;0.63;0.60;;;11.20;99.90;;;;;;5101599;28;20494;-85
2022/09/09 00:14:00;;;;;;;4.00;0.60;;;11.20;99.90;;;;;;5105022;28;20556;-84
2022/09/09 00:16:31;;;;;;;1.23;1.00;;;11.20;99.90;;;;;;5103363;28;20463;-84
2022/09/09 00:19:04;;;;;;;1.43;1.33;;;11.30;99.90;;;;;;5100675;28;20449;-84
2022/09/09 00:21:36;;;;;;;1.53;0.73;;;11.20;99.90;;;;;;5100827;28;20469;-84
2022/09/09 00:24:13;;;;;;;1.00;0.80;;;11.30;99.90;;;;;;5101954;28;20464;-83
2022/09/09 00:26:44;;;;;;;1.13;1.03;;;11.30;99.90;;;;;;5097318;28;20464;-84
2022/09/09 00:29:22;;;;;;;1.40;0.80;;;11.30;99.90;;;;;;5102344;27;20483;-86
2022/09/09 00:31:49;;;;;;;1.20;0.80;;;11.30;99.90;;;;;;5104580;28;20545;-85
2022/09/09 00:34:21;;;;;;;4.10;1.83;;;11.20;99.90;;;;;;5104916;28;20497;-85
2022/09/09 00:36:51;;;;;;;1.80;1.70;;;11.20;99.90;;;;;;5104317;28;20533;-84
2022/09/09 00:39:30;;;;;;;1.43;1.00;;;11.20;99.90;;;;;;5096463;28;20467;-84
2022/09/09 00:42:11;;;;;;;0.73;0.73;;;11.10;99.90;;;;;;5101905;28;20456;-86
2022/09/09 00:44:39;;;;;;;1.03;0.80;;;11.10;99.90;;;;;;5096490;28;20460;-84
2022/09/09 00:47:21;;;;;;;0.70;0.60;;;11.10;99.90;;;;;;5104296;28;20460;-84
2022/09/09 00:50:01;;;;;;;1.23;0.90;;;11.10;99.90;;;;;;5099878;28;21006;-86
2022/09/09 00:52:37;;;;;;;1.00;0.67;;;11.10;99.90;;;;;;5100143;28;20475;-86
2022/09/09 00:55:15;;;;;;;2.20;1.20;;;11.10;99.90;;;;;;5101966;28;20476;-85
2022/09/09 00:57:42;;;;;;;0.90;0.50;;;11.10;99.90;;;;;;5100762;28;20490;-85
2022/09/09 01:00:24;;;;;;;1.10;1.00;;;11.00;99.90;;;;;;5099925;28;20530;-83
2022/09/09 01:03:10;;;;;;;1.20;0.70;;;11.00;99.90;;;;;;5102043;28;20453;-83
2022/09/09 01:05:46;;;;;;;0.50;0.40;;;11.00;99.90;;;;;;5085041;27;20463;-86
2022/09/09 01:08:30;;;;;;;0.83;0.70;;;11.10;99.90;;;;;;5099295;27;20458;-84
2022/09/09 01:11:02;;;;;;;0.97;0.87;;;11.10;99.90;;;;;;5098216;28;20552;-83
2022/09/09 01:13:33;;;;;;;0.60;0.60;;;11.10;99.90;;;;;;5098679;28;20462;-85
2022/09/09 01:16:03;;;;;;;2.70;1.00;;;11.00;99.90;;;;;;5102412;28;20468;-85
2022/09/09 01:18:35;;;;;;;0.90;0.73;;;11.10;99.90;;;;;;5096423;28;20495;-85
2022/09/09 01:21:10;;;;;;;0.80;0.60;;;11.10;99.90;;;;;;5099847;27;20583;-85
2022/09/09 01:23:50;;;;;;;0.63;0.60;;;11.10;99.90;;;;;;5095511;28;20986;-86
2022/09/09 01:26:25;;;;;;;0.60;0.57;;;11.10;99.90;;;;;;5099403;28;20471;-85
2022/09/09 01:28:53;;;;;;;0.60;0.50;;;11.00;99.90;;;;;;5095179;28;20484;-84
2022/09/09 01:31:23;;;;;;;0.60;0.50;;;10.90;99.90;;;;;;5101296;28;20885;-85
2022/09/09 01:33:51;;;;;;;0.80;0.50;;;10.90;99.90;;;;;;5103004;28;20438;-84
2022/09/09 01:36:25;;;;;;;0.77;0.77;;;11.00;99.90;;;;;;5095188;28;20829;-83
2022/09/09 01:38:53;;;;;;;0.97;0.80;;;10.90;99.90;;;;;;5102557;27;20526;-84
2022/09/09 01:41:22;;;;;;;0.97;0.50;;;10.80;99.90;;;;;;5101033;28;20610;-84
2022/09/09 01:43:50;;;;;;;0.63;0.63;;;10.80;99.90;;;;;;5102747;28;20458;-82
2022/09/09 01:46:18;;;;;;;1.60;0.73;;;10.80;99.90;;;;;;5098359;28;20490;-84
2022/09/09 01:48:46;;;;;;;0.70;0.50;;;10.80;99.90;;;;;;5100614;28;20467;-83
2022/09/09 01:51:13;;;;;;;0.40;0.30;;;10.80;99.90;;;;;;5101398;28;20465;-84
2022/09/09 01:53:41;;;;;;;1.13;0.43;;;10.80;99.90;;;;;;5103942;28;20459;-83
2022/09/09 01:56:19;;;;;;;1.00;1.00;;;10.80;99.90;;;;;;5098837;28;20455;-86
2022/09/09 01:59:00;;;;;;;0.60;0.50;;;10.80;99.90;;;;;;5099278;28;20890;-84
2022/09/09 02:01:37;;;;;;;0.63;0.47;;;10.80;99.90;;;;;;5099220;28;20464;-84
2022/09/09 02:04:12;;;;;;;1.53;0.40;;;10.90;99.90;;;;;;5102535;28;20604;-87
2022/09/09 02:06:41;;;;;;;0.53;0.40;;;10.90;99.90;;;;;;5099901;28;20800;-84
2022/09/09 02:09:13;;;;;;;0.47;0.40;;;10.90;99.90;;;;;;5122857;28;20561;-85
2022/09/09 02:11:44;;;;;;;0.47;0.47;;;11.00;99.90;;;;;;5129512;28;20528;-84
2022/09/09 02:14:17;;;;;;;0.70;0.40;;;10.90;99.90;;;;;;5107301;28;20462;-84
2022/09/09 02:16:49;;;;;;;0.60;0.40;;;10.90;99.90;;;;;;5095177;28;20999;-83
2022/09/09 02:19:23;;;;;;;1.03;0.50;;;10.90;99.90;;;;;;5102176;28;20838;-84
2022/09/09 02:21:51;;;;;;;0.40;0.30;;;10.90;99.90;;;;;;5106179;27;20467;-86
2022/09/09 02:24:18;;;;;;;0.40;0.30;;;10.90;99.90;;;;;;5103083;28;21137;-84
2022/09/09 02:26:48;;;;;;;0.40;0.30;;;10.90;99.90;;;;;;5106027;28;20444;-85
2022/09/09 02:29:20;;;;;;;0.83;0.37;;;10.80;99.90;;;;;;5107457;28;20477;-85
2022/09/09 02:31:50;;;;;;;0.50;0.50;;;10.80;99.90;;;;;;5108605;28;20462;-84
2022/09/09 02:34:19;;;;;;;0.50;0.47;;;10.80;99.90;;;;;;5101931;28;20508;-85
2022/09/09 02:36:47;;;;;;;0.40;0.30;;;10.80;99.90;;;;;;5103734;28;20470;-86
2022/09/09 02:39:15;;;;;;;0.80;0.53;;;10.80;99.90;;;;;;5098582;28;20491;-84
2022/09/09 02:41:43;;;;;;;0.70;0.40;;;10.80;99.90;;;;;;5104379;28;20443;-83
2022/09/09 02:44:12;;;;;;;0.40;0.40;;;10.70;99.90;;;;;;5102785;27;20459;-85
2022/09/09 02:47:01;;;;;;;3.40;0.40;;;10.60;99.90;;;;;;5103750;28;20474;-84
2022/09/09 02:49:38;;;;;;;0.70;0.40;;;10.50;99.90;;;;;;5105412;28;21270;-85
2022/09/09 02:52:07;;;;;;;1.13;0.60;;;10.50;99.90;;;;;;5104519;28;21131;-84
2022/09/09 02:54:36;;;;;;;0.50;0.30;;;10.50;99.90;;;;;;5102562;28;20562;-86
2022/09/09 02:57:07;;;;;;;0.50;0.40;;;10.40;99.90;;;;;;5101404;28;20458;-85
2022/09/09 02:59:35;;;;;;;0.80;0.50;;;10.30;99.90;;;;;;5100513;28;20507;-87
2022/09/09 03:02:03;;;;;;;1.73;0.83;;;10.30;99.90;;;;;;5100011;28;20459;-85
2022/09/09 03:04:31;;;;;;;4.10;0.50;;;10.30;99.90;;;;;;5102201;28;21012;-85
2022/09/09 03:06:58;;;;;;;0.50;0.40;;;10.30;99.90;;;;;;5104001;28;20465;-84
2022/09/09 03:09:25;;;;;;;0.47;0.40;;;10.30;99.90;;;;;;5103560;28;20476;-85
2022/09/09 03:11:54;;;;;;;4.90;1.37;;;10.40;99.90;;;;;;5099170;28;20503;-85
2022/09/09 03:14:24;;;;;;;0.60;0.47;;;10.40;99.90;;;;;;5096750;27;20567;-85
2022/09/09 03:16:51;;;;;;;1.83;0.50;;;10.40;99.90;;;;;;5105497;27;20457;-86
2022/09/09 03:19:19;;;;;;;0.80;0.70;;;10.40;99.90;;;;;;5102071;28;20504;-85
2022/09/09 03:21:46;;;;;;;1.30;0.60;;;10.40;99.90;;;;;;5104066;27;20470;-84
2022/09/09 03:24:14;;;;;;;0.70;0.70;;;10.30;99.90;;;;;;5100645;28;20463;-85
2022/09/09 03:26:41;;;;;;;0.60;0.50;;;10.30;99.90;;;;;;5102226;28;20462;-84
2022/09/09 03:29:08;;;;;;;0.63;0.40;;;10.40;99.90;;;;;;5100091;28;20482;-84
2022/09/09 03:31:35;;;;;;;0.90;0.43;;;10.40;99.90;;;;;;5095914;28;20869;-86
2022/09/09 03:34:02;;;;;;;0.50;0.40;;;10.40;99.90;;;;;;5106654;28;20530;-84
2022/09/09 03:36:32;;;;;;;0.43;0.43;;;10.40;99.90;;;;;;5102981;27;20953;-86
2022/09/09 03:39:00;;;;;;;0.60;0.60;;;10.40;99.90;;;;;;5105268;27;20478;-85
2022/09/09 03:41:27;;;;;;;0.73;0.50;;;10.40;99.90;;;;;;5101956;28;20553;-84
2022/09/09 03:43:55;;;;;;;3.07;0.77;;;10.40;99.90;;;;;;5104990;27;20460;-86
2022/09/09 03:46:23;;;;;;;0.80;0.50;;;10.40;99.90;;;;;;5097921;28;20459;-85
2022/09/09 03:48:51;;;;;;;2.37;0.40;;;10.40;99.90;;;;;;5101252;28;20463;-85
2022/09/09 03:51:18;;;;;;;0.50;0.40;;;10.40;99.90;;;;;;5102809;27;20939;-84
2022/09/09 03:53:47;;;;;;;0.50;0.47;;;10.50;99.90;;;;;;5105457;28;20459;-85
2022/09/09 03:56:15;;;;;;;1.00;0.50;;;10.50;99.90;;;;;;5102967;28;20455;-86
2022/09/09 03:58:42;;;;;;;0.60;0.40;;;10.50;99.90;;;;;;5099158;28;20868;-86
2022/09/09 04:01:12;;;;;;;0.97;0.50;;;10.50;99.90;;;;;;5101288;28;20524;-86
2022/09/09 04:03:40;;;;;;;2.00;0.40;;;10.60;99.90;;;;;;5101068;27;20892;-85
2022/09/09 04:06:09;;;;;;;0.60;0.50;;;10.50;99.90;;;;;;5098167;27;20474;-84
2022/09/09 04:08:38;;;;;;;0.57;0.47;;;10.40;99.90;;;;;;5104816;28;20462;-85
2022/09/09 04:11:07;;;;;;;0.50;0.40;;;10.40;99.90;;;;;;5098563;28;20557;-84
2022/09/09 04:13:35;;;;;;;0.67;0.40;;;10.30;99.90;;;;;;5104554;28;20489;-84
2022/09/09 04:16:04;;;;;;;0.40;0.30;;;10.30;99.90;;;;;;5102573;28;20459;-85
2022/09/09 04:18:31;;;;;;;0.93;0.50;;;10.30;99.90;;;;;;5101148;28;20577;-85
2022/09/09 04:20:59;;;;;;;0.70;0.40;;;10.40;99.90;;;;;;5099399;28;20879;-84
2022/09/09 04:23:28;;;;;;;4.60;0.40;;;10.40;99.90;;;;;;5101869;28;20602;-85
2022/09/09 04:25:57;;;;;;;0.50;0.40;;;10.40;99.90;;;;;;5102882;28;20468;-85
2022/09/09 04:28:27;;;;;;;1.00;0.60;;;10.40;99.90;;;;;;5100235;28;20503;-85
2022/09/09 04:30:55;;;;;;;2.13;0.33;;;10.40;99.90;;;;;;5098724;28;20458;-84
2022/09/09 04:33:22;;;;;;;0.40;0.20;;;10.40;99.90;;;;;;5097736;28;20986;-84
2022/09/09 04:35:53;;;;;;;0.70;0.40;;;10.50;99.90;;;;;;5105583;27;20471;-84
2022/09/09 04:38:22;;;;;;;0.50;0.50;;;10.50;99.90;;;;;;5094970;27;20480;-86
2022/09/09 04:40:51;;;;;;;2.10;0.80;;;10.50;99.90;;;;;;5096428;27;20893;-84
2022/09/09 04:43:18;;;;;;;0.63;0.40;;;10.60;99.90;;;;;;5089897;27;20472;-85
2022/09/09 04:45:49;;;;;;;0.57;0.47;;;10.60;99.90;;;;;;5095466;28;20466;-85
2022/09/09 04:48:16;;;;;;;1.60;0.43;;;10.70;99.90;;;;;;5100318;28;20463;-87
2022/09/09 04:50:43;;;;;;;0.70;0.40;;;10.80;99.90;;;;;;5102699;27;20545;-85
2022/09/09 04:53:10;;;;;;;1.00;0.50;;;10.90;99.90;;;;;;5099668;27;20470;-84
2022/09/09 04:55:37;;;;;;;0.80;0.60;;;11.10;99.90;;;;;;5097398;27;20455;-85
2022/09/09 04:58:06;;;;;;;0.87;0.40;;;11.30;99.90;;;;;;5102114;27;20535;-85
2022/09/09 05:00:33;;;;;;;0.43;0.33;;;11.40;99.90;;;;;;5095544;28;20462;-84
2022/09/09 05:03:04;;;;;;;3.33;0.40;;;11.60;99.90;;;;;;5099923;28;20467;-84
2022/09/09 05:05:31;;;;;;;1.03;0.40;;;11.60;99.90;;;;;;5094020;27;20455;-84
2022/09/09 05:08:02;;;;;;;0.47;0.33;;;11.70;99.90;;;;;;5099104;27;20531;-85
2022/09/09 05:10:29;;;;;;;0.40;0.40;;;11.70;99.90;;;;;;5102025;27;20462;-84
2022/09/09 05:12:57;;;;;;;0.80;0.30;;;11.80;99.90;;;;;;5093693;28;20518;-85
2022/09/09 05:15:23;;;;;;;0.50;0.40;;;12.00;99.90;;;;;;5105954;27;20476;-85
2022/09/09 05:17:52;;;;;;;1.27;0.43;;;12.00;99.90;;;;;;5122180;28;20459;-84
2022/09/09 05:20:21;;;;;;;0.50;0.40;;;12.10;99.90;;;;;;5122199;27;20464;-84
2022/09/09 05:22:49;;;;;;;0.60;0.50;;;12.20;99.90;;;;;;5105814;27;20555;-84
2022/09/09 05:25:16;;;;;;;0.50;0.50;;;12.30;99.90;;;;;;5101204;27;20460;-84
2022/09/09 05:27:43;;;;;;;0.40;0.30;;;12.30;99.90;;;;;;5095576;28;21049;-84
2022/09/09 05:30:11;;;;;;;0.70;0.50;;;12.40;99.90;;;;;;5099630;27;20541;-85
2022/09/09 05:32:38;;;;;;;0.90;0.50;;;12.50;99.90;;;;;;5103476;27;20456;-84
2022/09/09 05:35:06;;;;;;;1.70;0.53;;;12.70;99.90;;;;;;5104641;27;20464;-85
2022/09/09 05:37:34;;;;;;;2.90;0.60;;;12.90;99.90;;;;;;5097398;28;20471;-85
2022/09/09 05:40:02;;;;;;;1.43;0.60;;;12.90;99.90;;;;;;5090889;28;20614;-86
2022/09/09 05:42:32;;;;;;;0.50;0.40;;;12.70;99.90;;;;;;5096384;28;20552;-84
2022/09/09 05:44:59;;;;;;;0.60;0.50;;;12.80;99.90;;;;;;5096794;28;20519;-85
2022/09/09 05:47:27;;;;;;;0.40;0.40;;;12.80;99.90;;;;;;5103940;27;20534;-84
2022/09/09 05:49:55;;;;;;;0.50;0.40;;;12.90;99.90;;;;;;5095999;27;20456;-85
2022/09/09 05:52:22;;;;;;;0.50;0.40;;;12.80;99.90;;;;;;5101790;28;20471;-85
2022/09/09 05:54:50;;;;;;;0.50;0.50;;;12.90;99.90;;;;;;5096357;28;20489;-84
2022/09/09 05:57:19;;;;;;;0.53;0.40;;;12.90;99.90;;;;;;5104672;28;20441;-84
2022/09/09 05:59:46;;;;;;;0.60;0.50;;;12.80;99.90;;;;;;5093141;28;20484;-84
2022/09/09 06:02:13;;;;;;;0.73;0.50;;;12.80;99.90;;;;;;5095811;28;20454;-84
2022/09/09 06:04:40;;;;;;;0.50;0.50;;;12.90;99.90;;;;;;5091741;28;20465;-86
2022/09/09 06:07:07;;;;;;;2.80;0.67;;;12.90;99.90;;;;;;5098737;28;20533;-85
2022/09/09 06:09:34;;;;;;;1.33;0.70;;;13.10;99.90;;;;;;5087794;28;20548;-84
2022/09/09 06:12:03;;;;;;;0.80;0.63;;;13.30;99.90;;;;;;5103544;28;20814;-84
2022/09/09 06:14:30;;;;;;;1.00;0.80;;;13.50;99.90;;;;;;5105049;28;20515;-84
2022/09/09 06:16:56;;;;;;;1.80;0.60;;;13.50;99.90;;;;;;5090414;28;20553;-83
2022/09/09 06:19:26;;;;;;;0.60;0.60;;;13.60;99.90;;;;;;5094764;28;20518;-83
2022/09/09 06:21:54;;;;;;;0.97;0.73;;;13.60;99.90;;;;;;5100707;28;20466;-84
2022/09/09 06:24:22;;;;;;;1.23;0.50;;;13.50;99.90;;;;;;5095502;28;20470;-85
2022/09/09 06:26:49;;;;;;;0.50;0.50;;;13.60;99.90;;;;;;5089325;28;21013;-84
2022/09/09 06:29:17;;;;;;;1.27;1.17;;;13.60;99.90;;;;;;5092657;28;20494;-85
2022/09/09 06:31:44;;;;;;;0.93;0.83;;;13.60;99.90;;;;;;5091824;28;20586;-84
2022/09/09 06:34:11;;;;;;;0.70;0.60;;;13.80;99.90;;;;;;5097100;28;21023;-84
2022/09/09 06:36:39;;;;;;;0.90;0.70;;;13.70;99.90;;;;;;5093414;28;20518;-85
2022/09/09 06:39:08;;;;;;;0.80;0.80;;;13.80;99.90;;;;;;5095002;28;20477;-85
2022/09/09 06:41:36;;;;;;;1.47;0.90;;;13.80;99.90;;;;;;5096188;28;20840;-83
2022/09/09 06:44:04;;;;;;;0.80;0.80;;;13.80;99.90;;;;;;5102365;28;20451;-83
2022/09/09 06:46:33;;;;;;;1.13;1.00;;;13.60;99.90;;;;;;5093365;28;20543;-84
2022/09/09 06:49:00;;;;;;;0.70;0.60;;;13.70;99.90;;;;;;5097756;28;20982;-83
2022/09/09 06:51:29;;;;;;;0.70;0.70;;;13.90;99.90;;;;;;5099511;28;20466;-84
2022/09/09 06:53:58;;;;;;;0.70;0.70;;;13.90;99.90;;;;;;5098865;28;20530;-85
2022/09/09 06:56:27;;;;;;;1.27;0.70;;;14.10;99.90;;;;;;5099704;28;20467;-83
2022/09/09 06:58:55;;;;;;;1.70;0.60;;;13.90;99.90;;;;;;5102035;28;20556;-83
2022/09/09 07:01:24;;;;;;;1.73;0.60;;;13.90;99.90;;;;;;5097645;28;20536;-84
2022/09/09 07:03:54;;;;;;;0.60;0.50;;;14.00;99.90;;;;;;5096910;28;20621;-82
2022/09/09 07:06:23;;;;;;;0.50;0.50;;;14.00;99.90;;;;;;5097776;28;20462;-82
2022/09/09 07:08:52;;;;;;;0.43;0.37;;;14.20;99.90;;;;;;5094467;28;20467;-82
2022/09/09 07:11:20;;;;;;;0.50;0.47;;;14.30;99.90;;;;;;5096566;28;20469;-80
2022/09/09 07:13:48;;;;;;;1.27;0.40;;;14.50;99.90;;;;;;5097620;28;20462;-82
2022/09/09 07:16:17;;;;;;;1.67;0.60;;;14.50;99.90;;;;;;5102753;28;20878;-83
2022/09/09 07:18:44;;;;;;;1.03;0.40;;;14.60;99.90;;;;;;5103107;27;21279;-82
2022/09/09 07:21:14;;;;;;;0.90;0.80;;;14.80;99.90;;;;;;5098352;28;20463;-84
2022/09/09 07:23:42;;;;;;;0.90;0.40;;;14.80;99.90;;;;;;5105965;27;20468;-81
2022/09/09 07:26:10;;;;;;;0.40;0.33;;;14.60;99.90;;;;;;5101815;28;20637;-83
2022/09/09 07:28:38;;;;;;;0.60;0.50;;;14.90;99.90;;;;;;5100382;27;20495;-82
2022/09/09 07:31:06;;;;;;;0.50;0.40;;;15.00;99.90;;;;;;5104658;27;20459;-83
2022/09/09 07:33:35;;;;;;;0.50;0.37;;;14.60;99.90;;;;;;5094168;28;20494;-82
2022/09/09 07:36:07;;;;;;;0.50;0.40;;;14.50;99.90;;;;;;5096425;28;20471;-81
2022/09/09 07:38:39;;;;;;;0.70;0.70;;;14.40;99.90;;;;;;5092139;28;20447;-82
2022/09/09 07:41:09;;;;;;;0.60;0.60;;;14.30;99.90;;;;;;5104882;27;20460;-83
2022/09/09 07:43:36;;;;;;;0.60;0.57;;;14.40;99.90;;;;;;5104924;27;20464;-82
2022/09/09 07:46:02;;;;;;;0.70;0.50;;;14.50;99.90;;;;;;5104736;28;20509;-83
2022/09/09 07:48:30;;;;;;;0.90;0.50;;;14.60;99.90;;;;;;5103261;28;20522;-81
2022/09/09 07:51:06;;;;;;;0.50;0.50;;;14.70;99.90;;;;;;5105620;27;20468;-81
2022/09/09 07:53:34;;;;;;;0.60;0.40;;;14.60;99.90;;;;;;5097631;27;20583;-82
2022/09/09 07:56:06;;;;;;;0.90;0.60;;;14.70;99.90;;;;;;5094304;28;20454;-82
2022/09/09 07:58:33;;;;;;;0.73;0.60;;;14.80;99.90;;;;;;5106070;28;20536;-81
2022/09/09 08:01:00;;;;;;;0.70;0.63;;;15.00;99.90;;;;;;5102505;28;20548;-81
2022/09/09 08:03:27;;;;;;;0.80;0.60;;;15.10;99.90;;;;;;5108275;28;20466;-83
2022/09/09 08:05:54;;;;;;;0.50;0.40;;;15.20;99.90;;;;;;5100215;27;20458;-81
2022/09/09 08:08:21;;;;;;;8.53;0.73;;;15.30;99.90;;;;;;5087612;28;20452;-83
2022/09/09 08:10:47;;;;;;;0.70;0.60;;;15.40;99.90;;;;;;5088054;28;20523;-83
2022/09/09 08:13:18;;;;;;;0.60;0.50;;;15.50;99.90;;;;;;5087802;28;20530;-82
2022/09/09 08:15:45;;;;;;;0.50;0.50;;;15.60;99.90;;;;;;5094456;28;20513;-81
2022/09/09 08:18:12;;;;;;;0.50;0.47;;;15.50;99.90;;;;;;5087750;28;20446;-81
2022/09/09 08:20:39;;;;;;;1.53;1.03;;;15.60;99.90;;;;;;5092899;28;20562;-83
2022/09/09 08:23:06;;;;;;;3.87;0.67;;;15.40;99.90;;;;;;5094111;28;20525;-81
2022/09/09 08:25:34;;;;;;;0.70;0.50;;;15.40;99.90;;;;;;5101628;28;20494;-81
2022/09/09 08:28:03;;;;;;;0.80;0.70;;;15.50;99.90;;;;;;5110698;28;20442;-82
2022/09/09 08:30:31;;;;;;;0.50;0.50;;;15.30;99.90;;;;;;5114556;28;20922;-82
2022/09/09 08:32:59;;;;;;;0.90;0.90;;;15.20;99.90;;;;;;5099449;28;20492;-83
2022/09/09 08:35:26;;;;;;;3.57;0.50;;;15.10;99.90;;;;;;5105831;28;20472;-81
2022/09/09 08:37:55;;;;;;;1.33;0.50;;;15.20;99.90;;;;;;5112221;27;20446;-81
2022/09/09 08:40:30;;;;;;;0.60;0.60;;;15.20;99.90;;;;;;5107217;28;20488;-81
2022/09/09 08:42:59;;;;;;;0.60;0.43;;;15.30;99.90;;;;;;5102025;27;20464;-84
2022/09/09 08:45:34;;;;;;;0.70;0.70;;;15.30;99.90;;;;;;5107384;27;20874;-84
2022/09/09 08:48:14;;;;;;;2.50;0.80;;;15.40;99.90;;;;;;5107655;27;20654;-82
2022/09/09 08:50:43;;;;;;;1.23;1.00;;;15.40;99.90;;;;;;5094962;28;20473;-82
2022/09/09 08:53:17;;;;;;;1.07;0.53;;;15.40;99.90;;;;;;5099738;27;20460;-83
2022/09/09 08:55:48;;;;;;;0.90;0.57;;;15.30;99.90;;;;;;5098237;28;20479;-82
2022/09/09 08:58:18;;;;;;;0.63;0.63;;;15.20;99.90;;;;;;5109227;27;20467;-83
2022/09/09 09:01:04;;;;;;;0.97;0.70;;;15.40;99.90;;;;;;5086809;28;20535;-84
2022/09/09 09:03:43;;;;;;;1.63;0.80;;;15.30;99.90;;;;;;5092030;28;20461;-83
2022/09/09 09:06:27;;;;;;;1.00;0.80;;;15.30;99.90;;;;;;5090172;28;20450;-82
2022/09/09 09:09:03;;;;;;;0.80;0.53;;;15.30;99.90;;;;;;5085787;28;20530;-84
2022/09/09 09:11:37;;;;;;;1.67;0.87;;;15.30;99.90;;;;;;5096465;28;20539;-82
2022/09/09 09:14:09;;;;;;;0.93;0.80;;;15.30;99.90;;;;;;5094639;28;20456;-85
2022/09/09 09:16:45;;;;;;;0.70;0.70;;;15.20;99.90;;;;;;5086723;28;20457;-81
2022/09/09 09:19:15;;;;;;;0.70;0.67;;;15.20;99.90;;;;;;5102176;28;20516;-84
2022/09/09 09:21:44;;;;;;;1.17;0.80;;;15.20;99.90;;;;;;5099762;28;20498;-83
2022/09/09 09:24:19;;;;;;;3.23;1.17;;;15.00;99.90;;;;;;5093934;28;20523;-84
2022/09/09 09:26:47;;;;;;;3.47;1.90;;;15.00;99.90;;;;;;5086810;28;20946;-82
2022/09/09 09:29:16;;;;;;;1.03;0.60;;;15.00;99.90;;;;;;5086034;28;20544;-82
2022/09/09 09:31:48;;;;;;;0.80;0.80;;;15.10;99.90;;;;;;5101410;28;20458;-84
2022/09/09 09:34:15;;;;;;;1.73;0.60;;;15.10;99.90;;;;;;5106274;28;20475;-81
2022/09/09 09:36:45;;;;;;;1.03;0.70;;;15.00;99.90;;;;;;5104003;28;20945;-84
2022/09/09 09:39:24;;;;;;;0.97;0.90;;;15.10;99.90;;;;;;5093573;28;20435;-83
2022/09/09 09:41:52;;;;;;;1.33;0.90;;;15.20;99.90;;;;;;5107023;28;20508;-82
2022/09/09 09:44:25;;;;;;;0.90;0.90;;;15.20;99.90;;;;;;5113940;27;20501;-83
2022/09/09 09:47:06;;;;;;;1.00;0.70;;;15.20;99.90;;;;;;5114559;28;20444;-83
2022/09/09 09:49:33;;;;;;;1.90;1.03;;;15.30;99.90;;;;;;5092789;28;20519;-82
2022/09/09 09:52:02;;;;;;;0.70;0.70;;;15.40;99.90;;;;;;5099802;28;20436;-82
2022/09/09 09:54:32;;;;;;;0.90;0.80;;;15.60;99.90;;;;;;5103200;28;21207;-83
2022/09/09 09:57:10;;;;;;;1.53;1.33;;;15.60;99.90;;;;;;5093981;28;20440;-81
2022/09/09 09:59:39;;;;;;;3.33;1.53;;;15.80;99.90;;;;;;5085877;28;20484;-81
2022/09/09 10:02:24;;;;;;;1.00;0.90;;;15.90;99.90;;;;;;5091705;28;20544;-81
2022/09/09 10:05:02;;;;;;;0.80;0.70;;;16.00;99.90;;;;;;5096451;28;20465;-80
2022/09/09 10:07:29;;;;;;;0.90;0.70;;;16.20;99.90;;;;;;5088385;28;20528;-80
2022/09/09 10:09:58;;;;;;;1.60;1.40;;;16.20;99.90;;;;;;5094444;28;20551;-82
2022/09/09 10:12:37;;;;;;;3.07;0.70;;;16.30;99.90;;;;;;5093938;28;20450;-81
2022/09/09 10:15:23;;;;;;;1.00;0.90;;;16.30;99.90;;;;;;5096943;28;20477;-80
2022/09/09 10:18:01;;;;;;;1.13;0.97;;;16.30;99.90;;;;;;5085919;28;20449;-80
2022/09/09 10:20:37;;;;;;;1.47;1.23;;;16.60;99.90;;;;;;5086649;28;20490;-82
2022/09/09 10:23:15;;;;;;;4.00;1.13;;;16.80;99.90;;;;;;5088103;28;20523;-80
2022/09/09 10:25:59;;;;;;;0.80;0.70;;;17.00;99.90;;;;;;5094894;28;20824;-81
2022/09/09 10:28:43;;;;;;;0.70;0.60;;;17.30;99.90;;;;;;5097735;28;20485;-80
2022/09/09 10:31:20;;;;;;;3.07;0.70;;;17.60;99.90;;;;;;5096336;28;20464;-81
2022/09/09 10:33:52;;;;;;;0.60;0.60;;;17.80;99.90;;;;;;5099782;28;20548;-79
2022/09/09 10:36:23;;;;;;;0.60;0.60;;;18.10;99.90;;;;;;5105638;28;20457;-81
2022/09/09 10:38:56;;;;;;;0.70;0.70;;;18.20;99.90;;;;;;5107952;28;20944;-80
2022/09/09 10:41:35;;;;;;;0.80;0.70;;;18.20;99.90;;;;;;5116960;27;20493;-81
2022/09/09 10:44:22;;;;;;;0.73;0.60;;;18.20;99.90;;;;;;5108378;27;20442;-81
2022/09/09 10:47:25;;;;;;;0.70;0.60;;;18.20;99.90;;;;;;5113909;27;20453;-80
2022/09/09 10:50:23;;;;;;;0.80;0.70;;;18.10;99.90;;;;;;5092318;27;20518;-80
2022/09/09 10:53:01;;;;;;;0.50;0.50;;;18.00;99.90;;;;;;5111617;27;20799;-83
2022/09/09 10:59:06;;;;;;;0.80;0.50;;;18.00;99.90;;;;;;5100440;28;20494;-80
2022/09/09 11:01:44;;;;;;;1.13;0.60;;;17.90;99.90;;;;;;5109653;28;20485;-81
2022/09/09 11:04:18;;;;;;;0.73;0.73;;;17.80;99.90;;;;;;5108355;28;20883;-81
2022/09/09 11:06:53;;;;;;;0.57;0.50;;;17.80;99.90;;;;;;5108413;28;20446;-82
2022/09/09 11:09:24;;;;;;;0.73;0.73;;;18.30;99.90;;;;;;5109290;28;20473;-81
2022/09/09 11:11:54;;;;;;;0.63;0.40;;;18.70;99.90;;;;;;5109213;28;20854;-81
2022/09/09 11:14:29;;;;;;;0.53;0.50;;;18.90;99.90;;;;;;5108236;28;20534;-82
2022/09/09 11:17:01;;;;;;;0.80;0.50;;;19.10;99.90;;;;;;5108509;28;20532;-83
2022/09/09 11:19:35;;;;;;;0.60;0.60;;;19.00;99.90;;;;;;5107878;28;20473;-81
2022/09/09 11:22:09;;;;;;;0.50;0.50;;;19.10;99.90;;;;;;5104837;28;21264;-83
2022/09/09 11:24:40;;;;;;;0.70;0.40;;;19.00;99.90;;;;;;5103060;27;20540;-85
2022/09/09 11:27:13;;;;;;;0.50;0.47;;;19.30;99.90;;;;;;5088873;27;20469;-83
2022/09/09 11:30:03;;;;;;;0.50;0.40;;;19.10;99.90;;;;;;5093110;28;21065;-82
2022/09/09 11:32:52;;;;;;;1.90;0.60;;;19.20;99.90;;;;;;5104798;28;21249;-80
2022/09/09 11:35:34;;;;;;;0.50;0.50;;;19.80;99.90;;;;;;5126165;28;20467;-82
2022/09/09 11:38:19;;;;;;;0.60;0.50;;;19.60;99.90;;;;;;5126718;28;20460;-81
2022/09/09 11:40:47;;;;;;;0.40;0.40;;;19.50;99.90;;;;;;5110940;28;20550;-81
2022/09/09 11:43:21;;;;;;;0.70;0.60;;;19.30;99.90;;;;;;5110519;27;20463;-82
2022/09/09 11:45:55;;;;;;;0.50;0.40;;;19.20;99.90;;;;;;5107929;27;20465;-84
2022/09/09 11:48:30;;;;;;;0.60;0.40;;;19.00;99.90;;;;;;5108149;27;20480;-83
2022/09/09 11:51:05;;;;;;;0.97;0.67;;;19.00;99.90;;;;;;5105338;27;20486;-83
2022/09/09 11:53:34;;;;;;;0.50;0.40;;;19.00;99.90;;;;;;5108778;27;20467;-82
2022/09/09 11:56:04;;;;;;;0.97;0.37;;;18.70;99.90;;;;;;5108050;27;20464;-81
2022/09/09 11:58:40;;;;;;;0.77;0.30;;;18.60;99.90;;;;;;5102605;27;21014;-81
2022/09/09 12:01:29;;;;;;;0.50;0.47;;;18.60;99.90;;;;;;5106198;27;20600;-82
2022/09/09 12:04:14;;;;;;;0.93;0.60;;;18.40;99.90;;;;;;5105537;27;20462;-83
2022/09/09 12:06:47;;;;;;;0.50;0.40;;;18.40;99.90;;;;;;5080213;28;20468;-82
2022/09/09 12:09:25;;;;;;;0.40;0.40;;;18.40;99.90;;;;;;5110230;27;20726;-82
2022/09/09 12:11:53;;;;;;;0.50;0.50;;;18.40;99.90;;;;;;5108006;27;20502;-81
2022/09/09 12:14:36;;;;;;;0.53;0.50;;;18.40;99.90;;;;;;5099427;27;20908;-82
2022/09/09 12:17:18;;;;;;;1.20;0.50;;;18.60;99.90;;;;;;5116903;27;20914;-82
2022/09/09 12:19:45;;;;;;;0.63;0.50;;;18.70;99.90;;;;;;5105068;27;20468;-84
2022/09/09 12:22:23;;;;;;;1.27;0.50;;;18.60;99.90;;;;;;5106495;27;20874;-83
2022/09/09 12:25:02;;;;;;;0.50;0.50;;;18.40;99.90;;;;;;5108245;27;20465;-84
2022/09/09 12:27:36;;;;;;;1.17;0.50;;;18.40;99.90;;;;;;5102666;28;20489;-82
2022/09/09 12:30:10;;;;;;;2.20;0.60;;;18.50;99.90;;;;;;5093665;27;20596;-82
2022/09/09 12:32:38;;;;;;;1.03;0.47;;;18.40;99.90;;;;;;5104937;27;21416;-86
2022/09/09 12:35:12;;;;;;;0.73;0.60;;;18.20;99.90;;;;;;5102191;27;20460;-87
2022/09/09 12:37:47;;;;;;;1.47;0.50;;;18.30;99.90;;;;;;5098969;27;20555;-81
2022/09/09 12:40:25;;;;;;;0.83;0.50;;;18.30;99.90;;;;;;5103066;27;20548;-83
2022/09/09 12:42:52;;;;;;;0.40;0.40;;;18.20;99.90;;;;;;5101050;27;21050;-81
2022/09/09 12:45:23;;;;;;;0.50;0.40;;;18.10;99.90;;;;;;5098860;27;20458;-86
2022/09/09 12:47:55;;;;;;;0.70;0.50;;;17.90;99.90;;;;;;5110728;27;20559;-86
2022/09/09 12:50:31;;;;;;;2.37;0.70;;;17.70;99.90;;;;;;5108843;27;20463;-82
2022/09/09 12:53:02;;;;;;;0.90;0.70;;;17.50;99.90;;;;;;5095872;28;20453;-83
2022/09/09 12:55:36;;;;;;;1.17;0.70;;;17.40;99.90;;;;;;5101207;27;20896;-83
2022/09/09 12:58:05;;;;;;;1.90;0.60;;;17.20;99.90;;;;;;5104124;27;20457;-82
2022/09/09 13:00:33;;;;;;;0.87;0.40;;;17.10;99.90;;;;;;5096015;27;20948;-81
2022/09/09 13:03:02;;;;;;;1.00;0.50;;;17.20;99.90;;;;;;5106282;27;20886;-82
2022/09/09 13:05:37;;;;;;;1.00;0.90;;;17.10;99.90;;;;;;5089164;27;21152;-84
2022/09/09 13:08:06;;;;;;;0.63;0.53;;;17.00;99.90;;;;;;5099918;27;20457;-81
2022/09/09 13:10:38;;;;;;;0.80;0.70;;;16.90;99.90;;;;;;5104888;27;20458;-80
2022/09/09 13:13:07;;;;;;;0.60;0.60;;;16.90;99.90;;;;;;5109084;27;20484;-80